Time;durP1;ratioP1;P1;durP2;ratioP2;P2;SDS_P1;SDS_P2;PMS_P1;PMS_P2;Temp;Humidity;BMP_temperature;BMP_pressure;BME280_temperature;BME280_humidity;BME280_pressure;Samples;Min_cycle;Max_cycle;Signal;HPM_P1;HPM_P2
2022/06/15 00:00:31;;;;;;;2.65;0.88;;;13.10;99.90;;;;;;5095925;28;20021;-73
2022/06/15 00:02:56;;;;;;;7.13;0.85;;;13.10;99.90;;;;;;5095764;28;20020;-73
2022/06/15 00:05:22;;;;;;;1.50;0.50;;;13.10;99.90;;;;;;5095976;28;20129;-74
2022/06/15 00:07:47;;;;;;;3.75;1.25;;;13.00;99.90;;;;;;5077677;28;20087;-74
2022/06/15 00:10:13;;;;;;;4.75;1.20;;;13.00;99.90;;;;;;5077717;28;20036;-74
2022/06/15 00:12:41;;;;;;;3.28;0.82;;;13.00;99.90;;;;;;5096279;28;20059;-74
2022/06/15 00:15:08;;;;;;;1.33;0.52;;;13.00;99.90;;;;;;5095616;28;20028;-74
2022/06/15 00:17:34;;;;;;;5.10;0.73;;;13.00;99.90;;;;;;5095422;28;20035;-74
2022/06/15 00:19:59;;;;;;;2.58;0.60;;;12.90;99.90;;;;;;5095597;28;20024;-74
2022/06/15 00:22:25;;;;;;;5.00;1.17;;;12.90;99.90;;;;;;5095819;28;20040;-74
2022/06/15 00:24:50;;;;;;;2.80;0.70;;;12.80;99.90;;;;;;5095426;28;20505;-74
2022/06/15 00:27:16;;;;;;;3.00;0.73;;;12.90;99.90;;;;;;5095573;28;20517;-74
2022/06/15 00:29:41;;;;;;;2.63;1.02;;;12.90;99.90;;;;;;5095420;28;20102;-74
2022/06/15 00:32:08;;;;;;;5.93;0.52;;;12.80;99.90;;;;;;5095614;28;20020;-74
2022/06/15 00:34:33;;;;;;;4.75;1.27;;;12.80;99.90;;;;;;5095677;28;20028;-74
2022/06/15 00:37:01;;;;;;;2.78;1.05;;;12.80;99.90;;;;;;5095099;28;20085;-74
2022/06/15 00:39:27;;;;;;;7.78;1.65;;;12.80;99.90;;;;;;5077106;28;20077;-74
2022/06/15 00:41:52;;;;;;;2.30;0.70;;;12.80;99.90;;;;;;5077003;28;20627;-74
2022/06/15 00:44:21;;;;;;;5.97;0.77;;;12.70;99.90;;;;;;5095653;28;20107;-74
2022/06/15 00:47:00;;;;;;;2.30;0.85;;;12.70;99.90;;;;;;5094953;28;20024;-74
2022/06/15 00:49:35;;;;;;;4.63;1.08;;;12.60;99.90;;;;;;5076752;28;20035;-74
2022/06/15 00:52:07;;;;;;;2.15;0.88;;;12.60;99.90;;;;;;5095130;28;20151;-74
2022/06/15 00:54:33;;;;;;;3.13;1.25;;;12.50;99.90;;;;;;5076802;28;20030;-74
2022/06/15 00:57:02;;;;;;;3.78;1.25;;;12.50;99.90;;;;;;5094886;28;20469;-74
2022/06/15 00:59:58;;;;;;;6.15;1.13;;;12.40;99.90;;;;;;5094838;28;20032;-74
2022/06/15 01:02:24;;;;;;;4.05;1.40;;;12.40;99.90;;;;;;5074381;28;20123;-74
2022/06/15 01:04:58;;;;;;;3.35;1.17;;;12.50;99.90;;;;;;5094778;28;20056;-74
2022/06/15 01:07:36;;;;;;;5.63;1.27;;;12.40;99.90;;;;;;5095006;28;20488;-74
2022/06/15 01:10:25;;;;;;;4.45;1.35;;;12.40;99.90;;;;;;5095868;28;20368;-74
2022/06/15 01:12:56;;;;;;;6.00;1.30;;;12.40;99.90;;;;;;5077343;28;20461;-74
2022/06/15 01:15:49;;;;;;;2.80;1.02;;;12.20;99.90;;;;;;5094245;28;20054;-74
2022/06/15 01:18:45;;;;;;;3.88;1.40;;;12.20;99.90;;;;;;5094693;28;20392;-74
2022/06/15 01:21:17;;;;;;;2.83;1.25;;;12.20;99.90;;;;;;5094748;28;20477;-74
2022/06/15 01:24:11;;;;;;;2.95;1.10;;;12.10;99.90;;;;;;5094365;28;20032;-74
2022/06/15 01:27:01;;;;;;;3.80;1.23;;;12.10;99.90;;;;;;5095121;28;20083;-74
2022/06/15 01:29:33;;;;;;;1.88;0.70;;;12.10;99.90;;;;;;5094303;28;20025;-74
2022/06/15 01:32:26;;;;;;;5.18;2.35;;;12.10;99.90;;;;;;5094767;28;20118;-74
2022/06/15 01:35:10;;;;;;;4.90;1.48;;;12.10;99.90;;;;;;5093736;28;20028;-74
2022/06/15 01:38:02;;;;;;;3.88;1.35;;;12.00;99.90;;;;;;5094041;28;20073;-74
2022/06/15 01:40:41;;;;;;;3.78;1.50;;;12.00;99.90;;;;;;5094553;28;20062;-74
2022/06/15 01:43:13;;;;;;;3.00;1.20;;;12.00;99.90;;;;;;5094111;28;20020;-74
2022/06/15 01:45:40;;;;;;;5.95;1.80;;;12.00;99.90;;;;;;5075763;28;20119;-74
2022/06/15 01:48:10;;;;;;;2.13;1.02;;;11.90;99.90;;;;;;5094396;28;20030;-71
2022/06/15 01:50:39;;;;;;;6.45;1.35;;;11.90;99.90;;;;;;5081694;22;20040;-75
2022/06/15 01:53:13;;;;;;;5.28;1.45;;;11.90;99.90;;;;;;5053725;28;20439;-72
2022/06/15 01:55:47;;;;;;;4.57;1.30;;;11.90;99.90;;;;;;5053672;28;20036;-75
2022/06/15 01:58:16;;;;;;;2.08;1.30;;;11.80;99.90;;;;;;5054244;28;20035;-75
2022/06/15 02:00:46;;;;;;;5.07;1.20;;;11.90;99.90;;;;;;5053584;28;20021;-75
2022/06/15 02:03:51;;;;;;;3.85;1.30;;;11.80;99.90;;;;;;5052918;28;20108;-75
2022/06/15 02:06:27;;;;;;;4.80;1.52;;;11.80;99.90;;;;;;4992117;28;20085;-75
2022/06/15 02:09:22;;;;;;;6.25;1.33;;;11.80;99.90;;;;;;5027750;28;20036;-75
2022/06/15 02:11:48;;;;;;;4.80;1.48;;;11.70;99.90;;;;;;5035521;28;20028;-75
2022/06/15 02:14:22;;;;;;;5.22;1.15;;;11.70;99.90;;;;;;5053575;28;20013;-75
2022/06/15 02:17:02;;;;;;;3.70;1.08;;;11.70;99.90;;;;;;5035421;28;20067;-74
2022/06/15 02:19:36;;;;;;;2.60;1.23;;;11.70;99.90;;;;;;5053304;28;20021;-75
2022/06/15 02:22:11;;;;;;;4.45;1.92;;;11.70;99.90;;;;;;5035438;28;20040;-75
2022/06/15 02:24:38;;;;;;;3.72;1.10;;;11.70;99.90;;;;;;5053512;28;20042;-75
2022/06/15 02:27:07;;;;;;;2.95;1.30;;;11.70;99.90;;;;;;5053064;28;20032;-75
2022/06/15 02:29:37;;;;;;;7.75;1.63;;;11.70;99.90;;;;;;5053239;28;20028;-75
2022/06/15 02:32:10;;;;;;;4.78;1.20;;;11.70;99.90;;;;;;5053290;28;20028;-75
2022/06/15 02:34:36;;;;;;;4.10;1.17;;;11.70;99.90;;;;;;5035398;28;20028;-75
2022/06/15 02:37:01;;;;;;;3.78;1.85;;;11.70;99.90;;;;;;5053448;28;20029;-75
2022/06/15 02:39:27;;;;;;;3.72;1.45;;;11.70;99.90;;;;;;5053651;28;20075;-75
2022/06/15 02:42:20;;;;;;;2.25;1.35;;;11.70;99.90;;;;;;5053573;28;20025;-76
2022/06/15 02:44:48;;;;;;;4.68;1.38;;;11.70;99.90;;;;;;5053285;28;20473;-76
2022/06/15 02:47:15;;;;;;;2.25;1.00;;;11.70;99.90;;;;;;5053194;28;20017;-76
2022/06/15 02:49:40;;;;;;;3.65;1.10;;;11.60;99.90;;;;;;5052976;28;20032;-76
2022/06/15 02:52:10;;;;;;;2.53;0.90;;;11.60;99.90;;;;;;5053533;28;20441;-76
2022/06/15 02:54:45;;;;;;;5.07;0.90;;;11.60;99.90;;;;;;5052996;28;20037;-76
2022/06/15 02:57:11;;;;;;;4.65;1.17;;;11.60;99.90;;;;;;5053855;28;20060;-76
2022/06/15 02:59:37;;;;;;;3.17;0.90;;;11.60;99.90;;;;;;5053242;28;20074;-75
2022/06/15 03:02:04;;;;;;;4.00;1.10;;;11.60;99.90;;;;;;5053047;28;20064;-76
2022/06/15 03:04:29;;;;;;;4.47;1.27;;;11.50;99.90;;;;;;5053068;28;20082;-76
2022/06/15 03:06:55;;;;;;;2.20;0.85;;;11.50;99.90;;;;;;5052920;28;20538;-76
2022/06/15 03:09:21;;;;;;;2.20;1.05;;;11.50;99.90;;;;;;5052960;28;20029;-75
2022/06/15 03:11:46;;;;;;;2.85;1.00;;;11.50;99.90;;;;;;5052763;28;20378;-76
2022/06/15 03:14:16;;;;;;;2.63;1.30;;;11.40;99.90;;;;;;5053557;28;20036;-75
2022/06/15 03:16:43;;;;;;;4.47;1.10;;;11.40;99.90;;;;;;5057428;28;20075;-74
2022/06/15 03:19:12;;;;;;;6.68;1.15;;;11.30;99.90;;;;;;5038629;28;20029;-74
2022/06/15 03:21:38;;;;;;;1.65;0.80;;;11.30;99.90;;;;;;5056919;28;20482;-74
2022/06/15 03:24:05;;;;;;;9.90;1.48;;;11.30;99.90;;;;;;5038677;28;20013;-74
2022/06/15 03:26:31;;;;;;;2.22;1.42;;;11.20;99.90;;;;;;5038457;28;20064;-74
2022/06/15 03:28:56;;;;;;;3.58;1.70;;;11.20;99.90;;;;;;5038659;28;20021;-74
2022/06/15 03:31:22;;;;;;;6.20;1.08;;;11.20;99.90;;;;;;5056590;28;20032;-74
2022/06/15 03:33:47;;;;;;;4.70;1.83;;;11.10;99.90;;;;;;5056131;28;20021;-74
2022/06/15 03:36:13;;;;;;;5.00;0.85;;;11.10;99.90;;;;;;5056385;28;20028;-74
2022/06/15 03:38:38;;;;;;;4.40;0.98;;;11.10;99.90;;;;;;5038238;28;20028;-74
2022/06/15 03:41:04;;;;;;;2.53;1.55;;;11.10;99.90;;;;;;5056190;28;20023;-75
2022/06/15 03:43:30;;;;;;;3.65;1.38;;;11.10;99.90;;;;;;5056434;28;20017;-75
2022/06/15 03:45:56;;;;;;;8.00;1.85;;;11.10;99.90;;;;;;5056369;28;20021;-75
2022/06/15 03:48:22;;;;;;;6.70;1.10;;;11.10;99.90;;;;;;5056061;28;20019;-72
2022/06/15 03:50:48;;;;;;;2.50;0.95;;;11.10;99.90;;;;;;5055859;28;20035;-74
2022/06/15 03:53:13;;;;;;;5.57;0.90;;;11.10;99.90;;;;;;5056052;28;20025;-74
2022/06/15 03:55:40;;;;;;;2.65;0.60;;;11.10;99.90;;;;;;5056121;28;20024;-72
2022/06/15 03:58:06;;;;;;;4.43;0.93;;;11.20;99.90;;;;;;5037991;28;20021;-72
2022/06/15 04:00:33;;;;;;;4.53;1.00;;;11.20;99.90;;;;;;5056032;28;20021;-74
2022/06/15 04:02:58;;;;;;;4.38;1.60;;;11.20;99.90;;;;;;5055783;28;20028;-75
2022/06/15 04:05:36;;;;;;;4.50;1.42;;;11.20;99.90;;;;;;5055654;28;20029;-74
2022/06/15 04:10:47;;;;;;;4.57;1.17;;;11.20;99.90;;;;;;5055857;28;20043;-73
2022/06/15 04:13:14;;;;;;;4.93;1.00;;;11.20;99.90;;;;;;5037758;28;20020;-73
2022/06/15 04:15:40;;;;;;;2.33;0.77;;;11.30;99.90;;;;;;5037558;28;20029;-73
2022/06/15 04:18:06;;;;;;;4.32;0.88;;;11.30;99.90;;;;;;5055645;28;20017;-73
2022/06/15 04:20:31;;;;;;;4.03;0.57;;;11.60;99.90;;;;;;5055522;28;20029;-72
2022/06/15 04:22:58;;;;;;;2.67;0.80;;;11.40;99.90;;;;;;5054145;28;20032;-72
2022/06/15 04:25:23;;;;;;;2.75;0.95;;;11.40;99.90;;;;;;5054834;28;20033;-72
2022/06/15 04:27:49;;;;;;;5.47;1.23;;;11.50;99.90;;;;;;5055102;28;20070;-72
2022/06/15 04:30:14;;;;;;;3.00;1.50;;;11.60;99.90;;;;;;5055790;28;20036;-75
2022/06/15 04:32:40;;;;;;;2.33;0.52;;;11.80;99.90;;;;;;5055237;28;20021;-74
2022/06/15 04:35:06;;;;;;;1.90;0.65;;;11.80;99.90;;;;;;5055219;28;20107;-74
2022/06/15 04:37:32;;;;;;;2.15;0.68;;;11.90;99.90;;;;;;5054992;28;20391;-74
2022/06/15 04:39:57;;;;;;;3.40;0.80;;;12.00;99.90;;;;;;5037172;28;20017;-74
2022/06/15 04:42:23;;;;;;;3.22;1.02;;;12.10;99.90;;;;;;5054989;28;20100;-74
2022/06/15 04:44:48;;;;;;;2.08;0.95;;;12.20;99.90;;;;;;5054869;28;20021;-74
2022/06/15 04:47:14;;;;;;;4.57;0.60;;;12.30;99.90;;;;;;5054775;28;20381;-74
2022/06/15 04:49:39;;;;;;;6.57;1.60;;;12.50;99.90;;;;;;5036693;28;20036;-74
2022/06/15 04:52:05;;;;;;;2.85;0.77;;;12.50;99.90;;;;;;5037015;28;20025;-74
2022/06/15 04:54:31;;;;;;;2.70;0.85;;;12.60;99.90;;;;;;5055292;28;20028;-75
2022/06/15 04:56:56;;;;;;;3.78;0.82;;;12.70;99.90;;;;;;5054674;28;20025;-75
2022/06/15 04:59:22;;;;;;;7.63;1.17;;;12.80;99.90;;;;;;5055005;28;20029;-75
2022/06/15 05:01:48;;;;;;;2.20;1.08;;;13.00;99.90;;;;;;5054901;28;20055;-75
2022/06/15 05:04:13;;;;;;;2.65;1.00;;;13.00;99.90;;;;;;5036832;28;20036;-75
2022/06/15 05:06:41;;;;;;;4.53;1.30;;;13.40;99.90;;;;;;5054556;28;20026;-77
2022/06/15 05:09:10;;;;;;;2.15;1.13;;;13.30;99.90;;;;;;5036632;28;20485;-77
2022/06/15 05:11:36;;;;;;;7.22;1.20;;;13.40;99.90;;;;;;5036656;28;20020;-76
2022/06/15 05:14:03;;;;;;;3.80;0.77;;;13.50;99.90;;;;;;5054323;28;20021;-75
2022/06/15 05:16:28;;;;;;;1.02;0.80;;;13.60;99.90;;;;;;5054248;28;20013;-74
2022/06/15 05:18:54;;;;;;;4.72;0.80;;;13.80;99.90;;;;;;5036431;28;20414;-74
2022/06/15 05:21:20;;;;;;;3.80;0.70;;;14.10;99.90;;;;;;5054755;28;20045;-73
2022/06/15 05:23:47;;;;;;;2.45;0.55;;;13.90;99.90;;;;;;5054626;28;20377;-75
2022/06/15 05:26:13;;;;;;;2.97;0.73;;;14.00;99.90;;;;;;5036448;28;20059;-75
2022/06/15 05:28:41;;;;;;;3.83;1.17;;;14.10;99.90;;;;;;5054579;28;20025;-76
2022/06/15 05:31:27;;;;;;;3.58;0.80;;;14.20;99.90;;;;;;5054418;28;20017;-74
2022/06/15 05:33:54;;;;;;;3.30;0.90;;;14.30;99.90;;;;;;5036235;28;20106;-74
2022/06/15 05:36:23;;;;;;;2.70;1.02;;;14.40;99.90;;;;;;5053857;28;20025;-74
2022/06/15 05:38:49;;;;;;;;;;;14.50;99.90;;;;;;5053332;28;20079;-74
2022/06/15 05:41:15;;;;;;;2.40;0.75;;;14.60;99.90;;;;;;5054069;28;19928;-74
2022/06/15 05:43:45;;;;;;;5.78;0.88;;;14.80;99.90;;;;;;5036122;28;20028;-74
2022/06/15 05:46:27;;;;;;;1.25;0.75;;;14.80;99.90;;;;;;5035629;28;20399;-74
2022/06/15 05:48:54;;;;;;;4.10;0.82;;;15.10;99.90;;;;;;5053660;28;20385;-74
2022/06/15 05:51:20;;;;;;;4.25;0.30;;;15.10;99.90;;;;;;5035736;28;20082;-74
2022/06/15 05:53:46;;;;;;;3.35;1.10;;;15.10;99.90;;;;;;5053633;28;20104;-74
2022/06/15 05:56:11;;;;;;;3.58;0.75;;;15.10;99.90;;;;;;5053276;28;20023;-74
2022/06/15 05:58:37;;;;;;;3.75;0.52;;;15.40;99.90;;;;;;5035737;28;20017;-74
2022/06/15 06:01:25;;;;;;;2.05;0.30;;;15.50;99.90;;;;;;5053505;28;20021;-74
2022/06/15 06:03:51;;;;;;;2.83;0.88;;;15.60;99.90;;;;;;5053668;28;20441;-73
2022/06/15 06:06:16;;;;;;;2.42;0.77;;;15.80;99.90;;;;;;5035539;28;20032;-74
2022/06/15 06:08:42;;;;;;;1.92;0.30;;;15.90;99.90;;;;;;5053466;28;20058;-74
2022/06/15 06:11:08;;;;;;;3.03;0.70;;;15.90;99.90;;;;;;5035843;28;20480;-74
2022/06/15 06:13:34;;;;;;;3.28;0.20;;;16.10;99.90;;;;;;5053866;28;20029;-75
2022/06/15 06:15:59;;;;;;;2.10;0.40;;;16.20;99.90;;;;;;5053065;28;20035;-74
2022/06/15 06:18:25;;;;;;;6.63;0.95;;;16.30;99.90;;;;;;5053303;28;20035;-74
2022/06/15 06:20:52;;;;;;;5.15;0.32;;;16.40;99.90;;;;;;5053523;28;20474;-74
2022/06/15 06:23:18;;;;;;;2.67;0.52;;;16.50;99.90;;;;;;5053227;28;20021;-75
2022/06/15 06:25:47;;;;;;;2.38;0.17;;;16.60;99.90;;;;;;5053084;28;20028;-74
2022/06/15 06:28:27;;;;;;;3.03;0.10;;;16.70;99.90;;;;;;5053286;28;20474;-75
2022/06/15 06:30:54;;;;;;;5.82;0.63;;;16.90;99.90;;;;;;5053593;28;20421;-75
2022/06/15 06:33:19;;;;;;;5.32;0.20;;;17.00;99.90;;;;;;5035246;28;20084;-75
2022/06/15 06:35:45;;;;;;;1.98;0.10;;;17.10;99.90;;;;;;5052848;28;20033;-75
2022/06/15 06:38:12;;;;;;;2.03;0.10;;;17.30;99.90;;;;;;5053393;28;20108;-75
2022/06/15 06:40:38;;;;;;;2.72;0.52;;;17.40;99.90;;;;;;5054024;28;20021;-75
2022/06/15 06:43:04;;;;;;;3.97;0.30;;;17.60;99.90;;;;;;5053149;28;20108;-75
2022/06/15 06:45:30;;;;;;;2.85;0.20;;;17.70;99.90;;;;;;5035213;28;20401;-76
2022/06/15 06:47:56;;;;;;;2.97;0.20;;;17.80;99.90;;;;;;5035117;28;20025;-76
2022/06/15 06:50:23;;;;;;;1.85;0.10;;;18.10;99.90;;;;;;5037836;28;20068;-76
2022/06/15 06:52:49;;;;;;;3.80;0.30;;;18.10;99.90;;;;;;5057304;28;20096;-76
2022/06/15 06:55:15;;;;;;;4.93;0.65;;;18.20;99.90;;;;;;5056938;28;20025;-76
2022/06/15 06:57:41;;;;;;;1.83;0.10;;;18.20;99.90;;;;;;5056949;28;20033;-77
2022/06/15 07:00:08;;;;;;;4.40;0.80;;;18.30;99.90;;;;;;5057536;28;20021;-77
2022/06/15 07:02:33;;;;;;;3.38;0.32;;;18.40;99.90;;;;;;5057459;28;20025;-76
2022/06/15 07:04:59;;;;;;;0.77;0.00;;;18.60;99.90;;;;;;5056776;28;20478;-76
2022/06/15 07:07:24;;;;;;;7.07;0.30;;;18.60;99.90;;;;;;5038934;28;20025;-76
2022/06/15 07:09:50;;;;;;;1.38;0.13;;;18.70;99.90;;;;;;5056683;28;20108;-76
2022/06/15 07:12:16;;;;;;;4.50;0.38;;;18.90;99.90;;;;;;5038854;28;20071;-76
2022/06/15 07:14:41;;;;;;;6.85;0.20;;;19.00;99.90;;;;;;5038777;28;20029;-76
2022/06/15 07:17:07;;;;;;;3.35;0.30;;;19.20;99.90;;;;;;5056617;28;20017;-76
2022/06/15 07:19:33;;;;;;;1.13;0.10;;;19.20;99.90;;;;;;5056844;28;20017;-76
2022/06/15 07:21:58;;;;;;;5.00;0.63;;;19.30;99.90;;;;;;5038764;28;20501;-75
2022/06/15 07:24:24;;;;;;;2.47;0.10;;;19.40;99.90;;;;;;5056828;28;20381;-75
2022/06/15 07:26:50;;;;;;;10.65;0.00;;;19.50;99.90;;;;;;5056685;28;20025;-76
2022/06/15 07:29:19;;;;;;;1.67;0.10;;;19.60;99.90;;;;;;5056922;28;20067;-76
2022/06/15 07:31:55;;;;;;;1.05;0.05;;;20.30;99.90;;;;;;5056617;28;20028;-76
2022/06/15 07:34:21;;;;;;;1.13;0.10;;;19.80;99.90;;;;;;5056602;28;20033;-76
2022/06/15 07:36:47;;;;;;;2.72;0.08;;;19.90;99.90;;;;;;5056422;28;20428;-76
2022/06/15 07:39:21;;;;;;;0.50;0.05;;;19.90;99.90;;;;;;5056150;28;20029;-76
2022/06/15 07:41:47;;;;;;;3.42;0.43;;;20.10;99.90;;;;;;5056236;28;20027;-76
2022/06/15 07:44:15;;;;;;;1.45;0.03;;;20.20;99.30;;;;;;5056403;28;20100;-76
2022/06/15 07:46:41;;;;;;;4.57;0.00;;;20.40;98.70;;;;;;5056146;28;20096;-77
2022/06/15 07:51:55;;;;;;;2.80;0.43;;;20.50;95.80;;;;;;5056479;28;20040;-73
2022/06/15 07:54:21;;;;;;;1.40;0.40;;;20.60;94.40;;;;;;5055773;28;20498;-74
2022/06/15 07:56:48;;;;;;;3.88;0.10;;;20.70;92.90;;;;;;5055747;28;20017;-74
2022/06/15 07:59:14;;;;;;;3.25;0.00;;;20.80;92.20;;;;;;5055994;28;20363;-73
2022/06/15 08:01:41;;;;;;;2.28;0.00;;;20.80;90.50;;;;;;5054781;28;20028;-73
2022/06/15 08:04:07;;;;;;;8.63;0.00;;;20.80;90.90;;;;;;5055993;28;20420;-72
2022/06/15 08:06:35;;;;;;;0.90;0.05;;;20.90;90.40;;;;;;5055585;28;20067;-72
2022/06/15 08:09:01;;;;;;;2.42;0.00;;;21.00;87.60;;;;;;5056312;28;20370;-73
2022/06/15 08:11:27;;;;;;;7.85;0.38;;;21.10;87.30;;;;;;5055535;28;20071;-73
2022/06/15 08:13:53;;;;;;;2.88;0.25;;;21.10;84.50;;;;;;5055540;28;20017;-72
2022/06/15 08:16:20;;;;;;;1.83;0.10;;;21.20;89.20;;;;;;5055388;28;20093;-72
2022/06/15 08:18:58;;;;;;;2.47;0.00;;;21.30;83.80;;;;;;5037522;28;20044;-72
2022/06/15 08:21:25;;;;;;;;;;;21.40;87.50;;;;;;5055873;28;20100;-72
2022/06/15 08:23:54;;;;;;;0.65;0.00;;;21.50;84.50;;;;;;5055309;28;19912;-72
2022/06/15 08:26:24;;;;;;;0.85;0.20;;;21.60;82.00;;;;;;5055103;28;20068;-72
2022/06/15 08:28:53;;;;;;;2.47;0.30;;;21.60;79.90;;;;;;5055216;28;20450;-72
2022/06/15 08:31:19;;;;;;;1.40;0.15;;;21.60;76.60;;;;;;5055476;28;20032;-72
2022/06/15 08:33:45;;;;;;;2.05;0.00;;;21.60;76.20;;;;;;5055493;28;20051;-72
2022/06/15 08:36:12;;;;;;;3.50;0.43;;;21.70;76.00;;;;;;5054972;28;20021;-72
2022/06/15 08:38:39;;;;;;;1.37;0.10;;;21.80;76.80;;;;;;5055197;28;20021;-72
2022/06/15 08:41:19;;;;;;;1.17;0.10;;;21.80;77.80;;;;;;5055285;28;20574;-73
2022/06/15 08:44:28;;;;;;;4.22;0.30;;;21.70;75.50;;;;;;5055074;28;20023;-73
2022/06/15 08:47:01;;;;;;;4.55;0.20;;;21.70;77.60;;;;;;5055111;28;20040;-73
2022/06/15 08:49:42;;;;;;;3.63;0.65;;;21.60;76.30;;;;;;5054749;28;20021;-73
2022/06/15 08:52:22;;;;;;;1.85;0.85;;;21.70;79.70;;;;;;5054979;28;20067;-73
2022/06/15 08:54:59;;;;;;;3.20;0.10;;;21.70;78.60;;;;;;5054675;28;20036;-73
2022/06/15 08:57:40;;;;;;;0.10;0.00;;;21.80;76.30;;;;;;5055261;28;20025;-73
2022/06/15 09:00:15;;;;;;;1.10;0.13;;;22.00;77.10;;;;;;5054637;28;20021;-73
2022/06/15 09:02:49;;;;;;;2.63;0.40;;;22.00;75.80;;;;;;5054634;28;20029;-74
2022/06/15 09:05:52;;;;;;;2.60;0.08;;;22.10;79.20;;;;;;5055150;28;20100;-73
2022/06/15 09:08:44;;;;;;;4.25;0.20;;;22.10;76.60;;;;;;5054766;28;20029;-73
2022/06/15 09:11:30;;;;;;;4.03;0.10;;;22.20;78.80;;;;;;5031412;28;20490;-73
2022/06/15 09:14:24;;;;;;;2.40;0.10;;;22.10;74.60;;;;;;5054331;28;20060;-73
2022/06/15 09:16:56;;;;;;;3.78;0.28;;;22.20;73.30;;;;;;5054394;28;20029;-72
2022/06/15 09:19:38;;;;;;;1.75;0.35;;;22.30;72.50;;;;;;5054304;28;20028;-72
2022/06/15 09:22:08;;;;;;;1.20;0.50;;;22.50;73.50;;;;;;5054517;28;20124;-72
2022/06/15 09:25:23;;;;;;;0.30;0.00;;;22.60;74.20;;;;;;5054222;28;20473;-72
2022/06/15 09:28:08;;;;;;;1.85;0.00;;;22.70;70.50;;;;;;5045921;28;20048;-73
2022/06/15 09:30:38;;;;;;;0.82;0.00;;;22.70;71.00;;;;;;5054133;28;20029;-74
2022/06/15 09:33:12;;;;;;;1.10;0.10;;;22.80;70.70;;;;;;5053986;28;20020;-74
2022/06/15 09:35:50;;;;;;;2.25;0.20;;;22.90;71.30;;;;;;5054332;28;20020;-73
2022/06/15 09:38:16;;;;;;;2.72;0.15;;;22.90;69.70;;;;;;5055145;28;20436;-73
2022/06/15 09:40:56;;;;;;;2.15;0.10;;;23.10;68.70;;;;;;5036404;28;20028;-73
2022/06/15 09:43:45;;;;;;;2.20;0.00;;;23.10;68.00;;;;;;5054052;28;20029;-74
2022/06/15 09:46:58;;;;;;;0.85;0.00;;;23.20;69.80;;;;;;5053739;28;20021;-74
2022/06/15 09:49:32;;;;;;;3.03;0.10;;;23.40;69.10;;;;;;5040270;28;20041;-74
2022/06/15 09:52:31;;;;;;;1.48;0.00;;;23.40;67.70;;;;;;5053814;28;20028;-74
2022/06/15 09:55:08;;;;;;;3.42;0.00;;;23.60;68.60;;;;;;5054194;28;20028;-74
2022/06/15 09:57:36;;;;;;;1.83;0.10;;;23.70;65.70;;;;;;5035655;28;20021;-74
2022/06/15 10:00:09;;;;;;;2.60;0.10;;;23.70;66.70;;;;;;5053655;28;20052;-74
2022/06/15 10:02:38;;;;;;;1.30;0.10;;;23.70;66.30;;;;;;5053497;28;20031;-74
2022/06/15 10:05:07;;;;;;;1.33;0.00;;;23.80;67.00;;;;;;5053546;28;20047;-74
2022/06/15 10:07:40;;;;;;;2.65;0.00;;;23.90;67.50;;;;;;5053671;28;20070;-74
2022/06/15 10:10:21;;;;;;;5.60;0.90;;;24.00;64.90;;;;;;5053475;28;20033;-74
2022/06/15 10:13:02;;;;;;;1.90;0.00;;;24.20;64.60;;;;;;5053754;28;20029;-74
2022/06/15 10:15:56;;;;;;;2.63;0.08;;;24.30;66.40;;;;;;5053352;28;20082;-74
2022/06/15 10:18:46;;;;;;;1.92;0.20;;;24.40;62.80;;;;;;5053410;28;20062;-74
2022/06/15 10:21:12;;;;;;;1.85;0.00;;;24.50;63.40;;;;;;5053559;28;20482;-74
2022/06/15 10:23:55;;;;;;;1.80;0.00;;;24.50;61.60;;;;;;5034844;28;20040;-74
2022/06/15 10:26:36;;;;;;;8.18;0.65;;;24.50;66.30;;;;;;5053221;28;20029;-74
2022/06/15 10:29:29;;;;;;;0.43;0.00;;;24.50;62.90;;;;;;5053602;28;20053;-74
2022/06/15 10:32:09;;;;;;;1.92;0.00;;;24.70;64.60;;;;;;5047032;28;20549;-74
2022/06/15 10:34:52;;;;;;;2.30;0.00;;;24.80;63.80;;;;;;5035389;28;20024;-74
2022/06/15 10:37:30;;;;;;;8.45;0.25;;;25.00;60.40;;;;;;5053246;28;20413;-74
2022/06/15 10:40:00;;;;;;;2.30;0.32;;;25.00;62.00;;;;;;5053291;28;20393;-74
2022/06/15 10:42:32;;;;;;;3.53;0.10;;;25.20;62.80;;;;;;5053117;28;20017;-74
2022/06/15 10:45:00;;;;;;;0.43;0.00;;;25.10;59.00;;;;;;5053321;28;20112;-74
2022/06/15 10:47:51;;;;;;;2.30;0.00;;;25.10;62.10;;;;;;5053037;28;20040;-74
2022/06/15 10:50:26;;;;;;;4.95;0.00;;;25.20;64.00;;;;;;5053031;28;20555;-74
2022/06/15 10:53:03;;;;;;;1.08;0.15;;;25.50;61.00;;;;;;5053023;28;20029;-74
2022/06/15 11:04:09;;;;;;;0.85;0.00;;;26.10;61.20;;;;;;5053429;28;20124;-74
2022/06/15 11:06:45;;;;;;;2.97;0.10;;;26.10;58.80;;;;;;5053323;28;20036;-74
2022/06/15 11:09:23;;;;;;;1.55;0.00;;;26.10;62.10;;;;;;5052998;28;20021;-74
2022/06/15 11:11:51;;;;;;;1.17;0.20;;;25.90;59.90;;;;;;5034929;28;20104;-73
2022/06/15 11:15:02;;;;;;;1.63;0.40;;;25.60;56.90;;;;;;5052613;28;20524;-73
2022/06/15 11:20:34;;;;;;;1.00;0.17;;;25.90;62.00;;;;;;4991997;28;20112;-73
2022/06/15 11:23:15;;;;;;;2.60;0.10;;;26.30;60.40;;;;;;5036259;28;20029;-73
2022/06/15 11:25:53;;;;;;;1.02;0.00;;;26.40;58.40;;;;;;5052495;28;20032;-73
2022/06/15 11:28:32;;;;;;;3.25;0.15;;;26.80;57.80;;;;;;5052722;28;20033;-74
2022/06/15 11:31:03;;;;;;;1.40;0.00;;;26.80;54.10;;;;;;5052671;28;20032;-74
2022/06/15 11:33:47;;;;;;;1.65;0.00;;;26.90;57.10;;;;;;5052574;28;20539;-73
2022/06/15 11:36:25;;;;;;;2.78;0.10;;;27.10;57.70;;;;;;5055299;28;20122;-74
2022/06/15 11:39:13;;;;;;;3.75;0.10;;;27.20;56.90;;;;;;5056678;28;20066;-74
2022/06/15 11:42:10;;;;;;;4.32;0.35;;;27.40;57.40;;;;;;5056776;28;20070;-74
2022/06/15 11:44:39;;;;;;;1.57;0.00;;;27.20;53.70;;;;;;5055783;28;20045;-75
2022/06/15 11:47:33;;;;;;;1.60;0.00;;;27.30;55.30;;;;;;5056394;28;20033;-74
2022/06/15 11:50:22;;;;;;;4.60;0.40;;;27.50;57.50;;;;;;5054868;28;20401;-74
2022/06/15 11:53:12;;;;;;;3.22;0.00;;;27.60;52.40;;;;;;5056316;28;20021;-74
2022/06/15 11:55:54;;;;;;;3.15;0.00;;;27.60;53.50;;;;;;5056326;28;20108;-74
2022/06/15 11:58:54;;;;;;;1.95;0.22;;;27.80;53.20;;;;;;5038865;28;20056;-75
2022/06/15 12:01:37;;;;;;;1.58;0.10;;;27.60;52.50;;;;;;5056829;28;20017;-75
2022/06/15 12:04:14;;;;;;;3.33;0.28;;;27.80;52.40;;;;;;5056007;28;20052;-74
2022/06/15 12:07:08;;;;;;;1.67;0.13;;;27.90;52.20;;;;;;5055875;28;20032;-74
2022/06/15 12:10:14;;;;;;;3.60;0.00;;;28.20;51.50;;;;;;5056359;28;20367;-74
2022/06/15 12:12:49;;;;;;;3.35;0.00;;;28.60;51.30;;;;;;4994653;28;20482;-75
2022/06/15 12:15:39;;;;;;;0.25;0.00;;;28.70;51.90;;;;;;5046851;28;20064;-75
2022/06/15 12:18:17;;;;;;;2.55;0.00;;;29.00;52.10;;;;;;5056070;28;20128;-75
2022/06/15 12:21:04;;;;;;;1.75;0.00;;;29.00;50.80;;;;;;5055777;28;20024;-73
2022/06/15 12:23:49;;;;;;;2.15;0.05;;;28.50;49.60;;;;;;5055864;28;20021;-73
2022/06/15 12:26:20;;;;;;;1.45;0.00;;;28.60;49.10;;;;;;5037934;28;20064;-73
2022/06/15 12:29:09;;;;;;;1.35;0.00;;;28.70;50.40;;;;;;5056041;28;20052;-73
2022/06/15 12:32:18;;;;;;;3.10;0.30;;;28.70;48.40;;;;;;5029879;28;20563;-73
2022/06/15 12:35:21;;;;;;;1.30;0.00;;;28.60;48.90;;;;;;5055751;28;20047;-73
2022/06/15 12:38:18;;;;;;;2.40;0.20;;;28.80;52.90;;;;;;5051427;28;20462;-73
2022/06/15 12:40:49;;;;;;;6.90;0.00;;;29.10;49.20;;;;;;5055731;28;20017;-75
2022/06/15 12:43:40;;;;;;;0.43;0.00;;;29.40;48.40;;;;;;5055107;28;20367;-75
2022/06/15 12:46:14;;;;;;;2.53;0.00;;;29.70;47.80;;;;;;5054956;28;20029;-75
2022/06/15 12:48:46;;;;;;;2.10;0.00;;;29.80;45.40;;;;;;5054553;28;20029;-76
2022/06/15 12:51:56;;;;;;;1.92;0.00;;;29.70;49.50;;;;;;5037072;28;20608;-76
2022/06/15 12:54:35;;;;;;;1.50;0.00;;;29.40;45.50;;;;;;5021965;28;20037;-76
2022/06/15 12:57:14;;;;;;;0.43;0.00;;;29.60;46.80;;;;;;5036886;28;20032;-75
2022/06/15 13:00:09;;;;;;;1.90;0.30;;;29.50;44.40;;;;;;5054583;28;20125;-75
2022/06/15 13:02:44;;;;;;;0.30;0.10;;;29.50;45.90;;;;;;5054721;28;20100;-75
2022/06/15 13:05:21;;;;;;;0.38;0.00;;;29.80;47.20;;;;;;5036780;28;20017;-75
2022/06/15 13:08:12;;;;;;;0.35;0.00;;;30.10;45.70;;;;;;5054942;28;20371;-76
2022/06/15 13:10:58;;;;;;;2.38;0.00;;;30.20;46.00;;;;;;5054551;28;20029;-76
2022/06/15 13:13:34;;;;;;;1.10;0.10;;;30.20;47.50;;;;;;5054475;28;20071;-75
2022/06/15 13:16:09;;;;;;;0.65;0.00;;;30.20;46.10;;;;;;5054997;28;20501;-75
2022/06/15 13:18:38;;;;;;;0.80;0.00;;;30.10;46.70;;;;;;5055023;28;20021;-76
2022/06/15 13:21:05;;;;;;;1.63;0.00;;;30.30;48.20;;;;;;5054378;28;20456;-73
2022/06/15 13:24:02;;;;;;;0.80;0.00;;;30.60;46.70;;;;;;5054869;28;20021;-73
2022/06/15 13:26:36;;;;;;;0.55;0.32;;;30.90;45.40;;;;;;5053690;28;20518;-73
2022/06/15 13:29:03;;;;;;;0.35;0.00;;;31.10;44.50;;;;;;5054205;28;20445;-73
2022/06/15 13:31:49;;;;;;;2.08;0.00;;;31.10;46.10;;;;;;5054364;28;20346;-73
2022/06/15 13:34:36;;;;;;;0.22;0.00;;;31.00;44.00;;;;;;5036271;28;20132;-73
2022/06/15 13:37:20;;;;;;;0.77;0.00;;;31.00;44.80;;;;;;5046563;28;20124;-73